createdAt,value
2019-02-05T00:00:36.950Z,4.46
2019-02-05T00:05:33.065Z,4.40
2019-02-05T00:10:29.087Z,4.39
2019-02-05T00:15:25.005Z,4.39
2019-02-05T00:20:21.298Z,4.38
2019-02-05T00:25:17.293Z,4.30
2019-02-05T00:30:15.090Z,4.21
2019-02-05T00:35:11.482Z,4.00
2019-02-05T00:40:12.713Z,3.93
2019-02-05T00:45:11.315Z,4.02
2019-02-05T00:50:10.117Z,3.84
2019-02-05T00:55:14.377Z,3.71
2019-02-05T01:00:16.536Z,3.61
2019-02-05T01:05:12.728Z,3.45
2019-02-05T01:10:09.757Z,3.31
2019-02-05T01:15:11.730Z,3.31
2019-02-05T01:20:10.949Z,3.24
2019-02-05T01:25:08.146Z,3.19
2019-02-05T01:30:10.629Z,3.15
2019-02-05T01:35:07.841Z,3.10
2019-02-05T01:40:07.444Z,3.19
2019-02-05T01:45:06.539Z,3.01
2019-02-05T01:50:05.402Z,3.04
2019-02-05T01:55:01.309Z,2.88
2019-02-05T01:59:57.202Z,2.70
2019-02-05T02:04:53.094Z,2.84
2019-02-05T02:09:48.988Z,2.71
2019-02-05T02:14:44.911Z,2.74
2019-02-05T02:19:41.551Z,2.84
2019-02-05T02:24:38.258Z,2.92
2019-02-05T02:29:34.714Z,2.70
2019-02-05T02:34:30.638Z,2.79
2019-02-05T02:39:26.698Z,2.79
2019-02-05T02:44:22.693Z,2.91
2019-02-05T02:49:18.614Z,2.73
2019-02-05T02:54:15.213Z,2.72
2019-02-05T02:59:11.253Z,2.57
2019-02-05T03:04:07.151Z,2.88
2019-02-05T03:09:08.049Z,2.92
2019-02-05T03:14:04.276Z,2.86
2019-02-05T03:19:00.186Z,2.91
2019-02-05T03:23:59.351Z,3.06
2019-02-05T03:28:55.346Z,2.96
2019-02-05T03:33:51.322Z,3.13
2019-02-05T03:38:47.218Z,3.11
2019-02-05T03:43:43.207Z,3.08
2019-02-05T03:48:39.324Z,3.06
2019-02-05T03:54:02.848Z,3.16
2019-02-05T03:59:05.758Z,2.99
2019-02-05T04:04:11.299Z,3.20
2019-02-05T04:09:45.870Z,3.06
2019-02-05T04:15:05.463Z,3.11
2019-02-05T04:20:29.002Z,3.03
2019-02-05T04:25:47.453Z,2.92
2019-02-05T04:31:04.128Z,3.09
2019-02-05T04:36:12.807Z,3.05
2019-02-05T04:41:18.095Z,3.13
2019-02-05T04:46:23.529Z,3.10
2019-02-05T04:51:38.709Z,3.07
2019-02-05T04:57:07.590Z,3.15
2019-02-05T05:02:16.221Z,3.08
2019-02-05T05:07:35.461Z,3.26
2019-02-05T05:12:31.749Z,3.33
2019-02-05T05:17:27.671Z,3.14
2019-02-05T05:22:23.554Z,3.33
2019-02-05T05:27:19.750Z,3.27
2019-02-05T05:32:16.296Z,3.22
2019-02-05T05:37:11.972Z,3.23
2019-02-05T05:42:07.879Z,3.18
2019-02-05T05:47:03.866Z,3.16
2019-02-05T05:51:59.761Z,3.15
2019-02-05T05:56:55.656Z,3.09
2019-02-05T06:01:51.540Z,3.07
2019-02-05T06:06:47.883Z,3.08
2019-02-05T06:11:43.856Z,3.02
2019-02-05T06:16:39.770Z,3.04
2019-02-05T06:21:35.661Z,2.98
2019-02-05T06:26:31.847Z,2.93
2019-02-05T06:31:27.740Z,2.94
2019-02-05T06:36:23.633Z,2.94
2019-02-05T06:41:19.510Z,2.92
2019-02-05T06:46:15.603Z,2.88
2019-02-05T06:51:11.466Z,2.93
2019-02-05T06:56:07.354Z,2.90
2019-02-05T07:01:03.540Z,2.88
2019-02-05T07:05:59.424Z,2.94
2019-02-05T07:10:55.404Z,2.94
2019-02-05T07:15:51.328Z,2.96
2019-02-05T07:20:47.414Z,2.88
2019-02-05T07:25:43.312Z,2.95
2019-02-05T07:30:39.196Z,2.94
2019-02-05T07:35:35.093Z,3.00
2019-02-05T07:40:31.072Z,2.98
2019-02-05T07:45:26.964Z,3.05
2019-02-05T07:50:24.951Z,3.01
2019-02-05T07:55:20.936Z,3.04
2019-02-05T08:00:26.665Z,3.02
2019-02-05T08:05:30.779Z,3.06
2019-02-05T08:10:26.668Z,3.10
2019-02-05T08:15:25.065Z,3.11
2019-02-05T08:20:20.956Z,3.13
2019-02-05T08:25:16.842Z,3.17
2019-02-05T08:30:42.003Z,3.18
2019-02-05T08:35:37.987Z,3.16
2019-02-05T08:40:33.983Z,3.12
2019-02-05T08:45:31.978Z,3.22
2019-02-05T08:50:30.374Z,3.15
2019-02-05T08:55:26.369Z,3.23
2019-02-05T09:00:27.735Z,3.21
2019-02-05T09:05:23.831Z,3.25
2019-02-05T09:10:25.286Z,3.25
2019-02-05T09:15:29.488Z,3.24
2019-02-05T09:20:29.430Z,3.34
2019-02-05T09:25:25.435Z,3.37
2019-02-05T09:30:26.548Z,3.39
2019-02-05T09:35:22.744Z,3.32
2019-02-05T09:40:21.740Z,3.34
2019-02-05T09:45:18.135Z,3.29
2019-02-05T09:50:17.575Z,3.35
2019-02-05T09:55:18.568Z,3.34
2019-02-05T10:00:17.761Z,3.33
2019-02-05T10:05:18.650Z,3.45
2019-02-05T10:10:16.546Z,3.44
2019-02-05T10:15:17.552Z,3.43
2019-02-05T10:20:14.882Z,3.41
2019-02-05T10:25:12.003Z,3.54
2019-02-05T10:30:12.810Z,3.48
2019-02-05T10:35:10.347Z,3.57
2019-02-05T10:40:09.550Z,3.60
2019-02-05T10:45:16.616Z,3.57
2019-02-05T10:50:15.952Z,3.63
2019-02-05T10:55:16.196Z,3.70
2019-02-05T11:00:26.381Z,3.75
2019-02-05T11:05:24.565Z,3.78
2019-02-05T11:10:20.668Z,3.81
2019-02-05T11:15:19.746Z,3.70
2019-02-05T11:20:17.947Z,3.67
2019-02-05T11:25:14.704Z,3.61
2019-02-05T11:30:20.397Z,3.68
2019-02-05T11:35:12.374Z,3.53
2019-02-05T11:40:12.096Z,3.60
2019-02-05T11:45:11.420Z,3.64
2019-02-05T11:50:13.997Z,3.59
2019-02-05T11:55:15.434Z,3.58
2019-02-05T12:00:16.075Z,3.62
2019-02-05T12:05:12.713Z,3.56
2019-02-05T12:10:11.104Z,3.56
2019-02-05T12:15:10.987Z,3.59
2019-02-05T12:20:10.410Z,3.61
2019-02-05T12:25:09.757Z,3.63
2019-02-05T12:30:18.431Z,3.76
2019-02-05T12:35:14.494Z,3.72
2019-02-05T12:40:13.889Z,3.69
2019-02-05T12:45:16.452Z,3.77
2019-02-05T12:50:15.460Z,3.66
2019-02-05T12:55:16.323Z,3.63
2019-02-05T13:00:17.933Z,3.75
2019-02-05T13:05:14.227Z,3.80
2019-02-05T13:10:13.826Z,3.68
2019-02-05T13:15:10.634Z,3.71
2019-02-05T13:20:23.156Z,3.70
2019-02-05T13:25:21.867Z,3.80
2019-02-05T13:30:27.886Z,3.90
2019-02-05T13:35:24.179Z,3.93
2019-02-05T13:40:24.271Z,3.93
2019-02-05T13:45:23.074Z,3.88
2019-02-05T13:50:32.406Z,3.83
2019-02-05T13:55:25.836Z,3.78
2019-02-05T14:00:28.587Z,3.74
2019-02-05T14:05:28.863Z,3.83
2019-02-05T14:10:30.661Z,3.82
2019-02-05T14:15:30.120Z,3.91
2019-02-05T14:20:27.019Z,4.09
2019-02-05T14:25:23.648Z,3.96
2019-02-05T14:30:27.180Z,3.90
2019-02-05T14:35:25.258Z,3.86
2019-02-05T14:40:24.095Z,4.08
2019-02-05T14:45:22.052Z,3.95
2019-02-05T14:50:25.198Z,3.99
2019-02-05T14:55:21.434Z,3.97
2019-02-05T15:00:28.146Z,4.03
2019-02-05T15:05:24.563Z,3.94
2019-02-05T15:10:20.650Z,4.15
2019-02-05T15:15:18.778Z,3.91
2019-02-05T15:20:18.148Z,4.05
2019-02-05T15:25:14.247Z,3.99
2019-02-05T15:30:25.929Z,4.07
2019-02-05T15:35:21.987Z,4.05
2019-02-05T15:40:17.986Z,4.09
2019-02-05T15:45:14.603Z,4.15
2019-02-05T15:50:15.529Z,4.22
2019-02-05T15:55:14.986Z,4.33
2019-02-05T16:00:19.526Z,4.20
2019-02-05T16:05:15.523Z,4.38
2019-02-05T16:10:21.485Z,4.36
2019-02-05T16:15:21.997Z,4.33
2019-02-05T16:20:20.883Z,4.49
2019-02-05T16:25:23.194Z,4.40
2019-02-05T16:30:22.415Z,4.46
2019-02-05T16:35:19.049Z,4.46
2019-02-05T16:40:29.415Z,4.34
2019-02-05T16:45:27.292Z,4.48
2019-02-05T16:50:25.889Z,4.42
2019-02-05T16:55:22.957Z,4.48
2019-02-05T17:00:26.580Z,4.36
2019-02-05T17:05:25.990Z,4.35
2019-02-05T17:10:22.857Z,4.44
2019-02-05T17:15:20.000Z,4.36
2019-02-05T17:20:25.933Z,4.12
2019-02-05T17:25:24.372Z,4.19
2019-02-05T17:30:23.436Z,4.53
2019-02-05T17:35:19.549Z,4.66
2019-02-05T17:40:24.467Z,4.36
2019-02-05T17:45:25.609Z,4.06
2019-02-05T17:50:21.784Z,3.82
2019-02-05T17:55:18.626Z,4.09
2019-02-05T18:05:40.989Z,4.40
2019-02-05T18:10:36.979Z,4.19
2019-02-05T18:16:14.551Z,3.97
2019-02-05T18:21:11.767Z,4.14
2019-02-05T18:26:07.663Z,4.02
2019-02-05T18:31:05.435Z,4.16
2019-02-05T18:36:01.358Z,3.89
2019-02-05T18:40:57.460Z,3.85
2019-02-05T18:46:13.390Z,3.79
2019-02-05T18:51:09.276Z,3.79
2019-02-05T18:56:05.752Z,3.87
2019-02-05T19:01:01.805Z,3.81
2019-02-05T19:05:57.794Z,4.06
2019-02-05T19:10:53.761Z,4.11
2019-02-05T19:15:49.697Z,4.01
2019-02-05T19:20:45.651Z,4.10
2019-02-05T19:26:01.421Z,4.09
2019-02-05T19:36:01.501Z,4.29
2019-02-05T19:40:57.977Z,4.39
2019-02-05T19:46:15.143Z,4.56
2019-02-05T19:51:11.132Z,4.59
2019-02-05T19:56:07.028Z,4.53
2019-02-05T20:11:53.097Z,4.66
2019-02-05T20:16:49.013Z,4.59
2019-02-05T20:21:44.901Z,4.55
2019-02-05T20:26:40.788Z,4.52
2019-02-05T20:31:36.672Z,4.35
2019-02-05T20:36:32.553Z,4.80
2019-02-05T20:41:30.335Z,4.75
2019-02-05T20:46:26.336Z,4.66
2019-02-05T20:51:22.229Z,4.53
2019-02-05T20:56:25.564Z,4.55
2019-02-05T21:01:21.452Z,4.48
2019-02-05T21:06:17.429Z,4.68
2019-02-05T21:11:13.321Z,4.64
2019-02-05T21:16:11.896Z,4.46
2019-02-05T21:21:07.915Z,4.36
2019-02-05T21:26:45.905Z,4.53
2019-02-05T21:31:42.573Z,4.66
2019-02-05T21:36:40.444Z,4.61
2019-02-05T21:42:20.278Z,4.48
2019-02-05T21:47:19.739Z,4.54
2019-02-05T21:52:15.674Z,4.23
2019-02-05T21:57:11.600Z,4.13
2019-02-05T22:02:07.641Z,4.09
2019-02-05T22:07:05.476Z,4.03
2019-02-05T22:12:01.424Z,3.98
2019-02-05T22:16:57.424Z,4.30
2019-02-05T22:21:55.177Z,3.96
2019-02-05T22:26:51.060Z,4.17
2019-02-05T22:31:46.948Z,4.42
2019-02-05T22:36:44.736Z,3.90
2019-02-05T22:41:40.653Z,4.08
2019-02-05T22:46:36.547Z,3.61
2019-02-05T22:51:32.531Z,3.23
2019-02-05T22:56:28.546Z,2.99
2019-02-05T23:01:46.475Z,2.77
2019-02-05T23:07:24.005Z,2.66
2019-02-05T23:12:39.964Z,2.49
2019-02-05T23:17:35.876Z,2.38
2019-02-05T23:22:31.759Z,2.25
2019-02-05T23:27:27.745Z,2.11
2019-02-05T23:32:23.784Z,1.94
2019-02-05T23:37:19.673Z,1.81
2019-02-05T23:42:15.665Z,1.67
2019-02-05T23:47:11.653Z,1.46
2019-02-05T23:52:07.743Z,1.32
2019-02-05T23:57:03.728Z,1.40
